Time;durP1;ratioP1;P1;durP2;ratioP2;P2;SDS_P1;SDS_P2;PMS_P1;PMS_P2;Temp;Humidity;BMP_temperature;BMP_pressure;BME280_temperature;BME280_humidity;BME280_pressure;Samples;Min_cycle;Max_cycle;Signal;HPM_P1;HPM_P2
2021/01/01 00:01:10;;;;;;;2.47;1.80;;;;;;;;;;5057527;28;20289;-71
2021/01/01 00:03:37;;;;;;;4.03;2.27;;;;;;;;;;5057258;28;20214;-71
2021/01/01 00:06:08;;;;;;;2.60;2.40;;;;;;;;;;5057581;28;20231;-71
2021/01/01 00:08:37;;;;;;;4.83;2.10;;;;;;;;;;5057455;28;20238;-71
2021/01/01 00:11:04;;;;;;;3.43;2.50;;;;;;;;;;5057212;28;20210;-71
2021/01/01 00:13:31;;;;;;;2.87;2.50;;;;;;;;;;5057334;28;20659;-71
2021/01/01 00:15:58;;;;;;;2.53;2.30;;;;;;;;;;5057260;28;20309;-71
2021/01/01 00:18:25;;;;;;;2.17;2.07;;;;;;;;;;5057354;28;20203;-71
2021/01/01 00:20:52;;;;;;;5.43;4.17;;;;;;;;;;5057298;28;20270;-71
2021/01/01 00:23:18;;;;;;;5.73;3.33;;;;;;;;;;5057537;28;20211;-71
2021/01/01 00:25:46;;;;;;;5.33;3.00;;;;;;;;;;5056937;28;20581;-71
2021/01/01 00:28:13;;;;;;;4.40;3.70;;;;;;;;;;5057335;28;20294;-71
2021/01/01 00:30:40;;;;;;;5.90;4.30;;;;;;;;;;5057213;28;20217;-71
2021/01/01 00:33:07;;;;;;;7.30;5.10;;;;;;;;;;5060398;28;20713;-71
2021/01/01 00:35:35;;;;;;;8.03;6.20;;;;;;;;;;5060935;28;20261;-71
2021/01/01 00:38:01;;;;;;;13.13;6.90;;;;;;;;;;5060783;28;20321;-72
2021/01/01 00:40:28;;;;;;;10.03;7.13;;;;;;;;;;5061228;28;20237;-72
2021/01/01 00:42:56;;;;;;;10.80;8.23;;;;;;;;;;5060957;28;20211;-71
2021/01/01 00:45:23;;;;;;;7.03;4.60;;;;;;;;;;5060588;28;20690;-71
2021/01/01 00:47:50;;;;;;;7.00;3.80;;;;;;;;;;5061218;28;20221;-71
2021/01/01 00:50:17;;;;;;;6.20;3.57;;;;;;;;;;5060782;28;20298;-71
2021/01/01 00:52:44;;;;;;;5.13;3.30;;;;;;;;;;5061235;28;20214;-71
2021/01/01 00:55:11;;;;;;;3.87;2.73;;;;;;;;;;5060808;28;20276;-71
2021/01/01 00:57:38;;;;;;;2.97;2.17;;;;;;;;;;5060840;28;20687;-71
2021/01/01 01:00:07;;;;;;;3.10;1.67;;;;;;;;;;5060717;28;20758;-71
2021/01/01 01:02:35;;;;;;;2.40;2.20;;;;;;;;;;5060883;28;20218;-71
2021/01/01 01:05:02;;;;;;;3.10;2.07;;;;;;;;;;5060367;28;20226;-71
2021/01/01 01:07:29;;;;;;;3.23;2.07;;;;;;;;;;5060798;28;20217;-71
2021/01/01 01:09:55;;;;;;;1.80;1.40;;;;;;;;;;5061012;28;20211;-71
2021/01/01 01:12:23;;;;;;;2.07;1.47;;;;;;;;;;5060480;28;20278;-70
2021/01/01 01:14:50;;;;;;;1.43;1.17;;;;;;;;;;5060298;28;20258;-71
2021/01/01 01:17:18;;;;;;;2.73;2.30;;;;;;;;;;5060325;28;20217;-71
2021/01/01 01:19:44;;;;;;;4.37;2.90;;;;;;;;;;5060072;28;20199;-71
2021/01/01 01:22:11;;;;;;;1.93;1.60;;;;;;;;;;5060140;28;20546;-71
2021/01/01 01:24:38;;;;;;;1.67;1.30;;;;;;;;;;5060313;28;20230;-71
2021/01/01 01:27:05;;;;;;;1.60;1.50;;;;;;;;;;5060219;28;20234;-71
2021/01/01 01:29:33;;;;;;;1.77;1.30;;;;;;;;;;5060170;28;20219;-71
2021/01/01 01:32:00;;;;;;;1.67;1.30;;;;;;;;;;5060022;28;20203;-72
2021/01/01 01:34:28;;;;;;;1.40;1.27;;;;;;;;;;5059766;28;20732;-71
2021/01/01 01:36:55;;;;;;;1.27;1.17;;;;;;;;;;5059951;28;20218;-71
2021/01/01 01:39:21;;;;;;;1.97;1.47;;;;;;;;;;5060243;28;20238;-70
2021/01/01 01:41:48;;;;;;;1.53;1.40;;;;;;;;;;5059660;28;20214;-71
2021/01/01 01:44:15;;;;;;;1.10;1.03;;;;;;;;;;5059312;28;20237;-71
2021/01/01 01:46:44;;;;;;;1.20;1.10;;;;;;;;;;5059607;28;20693;-71
2021/01/01 01:49:12;;;;;;;2.00;1.40;;;;;;;;;;5059523;28;20597;-71
2021/01/01 01:51:40;;;;;;;0.90;0.90;;;;;;;;;;5059859;28;20213;-71
2021/01/01 01:54:07;;;;;;;1.30;1.20;;;;;;;;;;5059836;28;20306;-71
2021/01/01 01:56:35;;;;;;;2.17;1.40;;;;;;;;;;5059426;28;20240;-71
2021/01/01 01:59:02;;;;;;;1.37;1.27;;;;;;;;;;5059610;28;20670;-71
2021/01/01 02:01:30;;;;;;;1.50;1.40;;;;;;;;;;5059615;28;20229;-71
2021/01/01 02:03:57;;;;;;;0.90;0.90;;;;;;;;;;5059539;28;20238;-71
2021/01/01 02:06:24;;;;;;;1.63;1.20;;;;;;;;;;5059230;28;20314;-71
2021/01/01 02:08:52;;;;;;;1.10;1.00;;;;;;;;;;5059677;28;20207;-71
2021/01/01 02:11:19;;;;;;;1.37;1.10;;;;;;;;;;5059054;28;20313;-71
2021/01/01 02:13:46;;;;;;;1.30;1.20;;;;;;;;;;5059221;28;20602;-71
2021/01/01 02:16:14;;;;;;;1.70;1.20;;;;;;;;;;5059395;28;20199;-71
2021/01/01 02:18:45;;;;;;;1.40;1.30;;;;;;;;;;5058930;28;20206;-71
2021/01/01 02:21:13;;;;;;;1.53;1.30;;;;;;;;;;5059058;28;20713;-71
2021/01/01 02:23:41;;;;;;;1.40;1.30;;;;;;;;;;5059044;28;20290;-71
2021/01/01 02:26:08;;;;;;;1.40;1.30;;;;;;;;;;5058731;28;20234;-71
2021/01/01 02:28:35;;;;;;;3.57;1.30;;;;;;;;;;5059246;28;20214;-71
2021/01/01 02:31:02;;;;;;;1.70;1.30;;;;;;;;;;5059039;28;20210;-71
2021/01/01 02:33:29;;;;;;;1.37;1.27;;;;;;;;;;5058648;28;20206;-71
2021/01/01 02:35:56;;;;;;;1.20;1.10;;;;;;;;;;5058558;28;20572;-71
2021/01/01 02:38:23;;;;;;;1.40;1.30;;;;;;;;;;5058760;28;20253;-71
2021/01/01 02:40:51;;;;;;;2.80;1.73;;;;;;;;;;5058718;28;20211;-70
2021/01/01 02:43:18;;;;;;;1.60;1.50;;;;;;;;;;5058918;28;20239;-71
2021/01/01 02:45:46;;;;;;;1.93;1.83;;;;;;;;;;5058460;28;20235;-70
2021/01/01 02:48:14;;;;;;;2.27;2.03;;;;;;;;;;5058804;28;20226;-71
2021/01/01 02:50:41;;;;;;;1.60;1.50;;;;;;;;;;5058583;28;20290;-71
2021/01/01 02:53:08;;;;;;;1.60;1.50;;;;;;;;;;5058481;28;20231;-70
2021/01/01 02:55:35;;;;;;;1.60;1.40;;;;;;;;;;5057441;28;20424;-71
2021/01/01 02:58:04;;;;;;;1.37;1.27;;;;;;;;;;5058308;28;20642;-71
2021/01/01 03:00:31;;;;;;;1.50;1.40;;;;;;;;;;5058406;28;20210;-71
2021/01/01 03:02:59;;;;;;;1.47;1.37;;;;;;;;;;5058207;28;20578;-70
2021/01/01 03:05:26;;;;;;;1.70;1.30;;;;;;;;;;5057982;28;20294;-71
2021/01/01 03:07:53;;;;;;;1.50;1.40;;;;;;;;;;5058461;28;20221;-71
2021/01/01 03:10:20;;;;;;;1.77;1.67;;;;;;;;;;5058498;28;20278;-71
2021/01/01 03:12:47;;;;;;;2.10;1.90;;;;;;;;;;5058208;28;20215;-71
2021/01/01 03:15:15;;;;;;;2.30;2.03;;;;;;;;;;5058221;28;20222;-71
2021/01/01 03:17:42;;;;;;;1.87;1.70;;;;;;;;;;5058243;28;20207;-71
2021/01/01 03:20:10;;;;;;;2.53;1.80;;;;;;;;;;5057990;28;20202;-71
2021/01/01 03:22:37;;;;;;;2.60;2.20;;;;;;;;;;5057921;28;20689;-70
2021/01/01 03:25:04;;;;;;;3.33;2.33;;;;;;;;;;5057817;28;20234;-71
2021/01/01 03:27:32;;;;;;;3.70;3.00;;;;;;;;;;5057468;28;20257;-71
2021/01/01 03:29:59;;;;;;;3.10;2.70;;;;;;;;;;5058314;28;20655;-71
2021/01/01 03:32:27;;;;;;;3.87;2.80;;;;;;;;;;5057814;28;20241;-71
2021/01/01 03:34:54;;;;;;;4.20;3.37;;;;;;;;;;5057731;28;20504;-71
2021/01/01 03:37:21;;;;;;;3.23;2.60;;;;;;;;;;5057589;28;20833;-71
2021/01/01 03:39:48;;;;;;;3.00;2.70;;;;;;;;;;5057841;28;20521;-71
2021/01/01 03:42:15;;;;;;;3.27;2.97;;;;;;;;;;5057548;28;20532;-71
2021/01/01 03:44:42;;;;;;;3.47;2.97;;;;;;;;;;5057865;28;20472;-71
2021/01/01 03:47:09;;;;;;;3.17;2.93;;;;;;;;;;5057445;28;20473;-71
2021/01/01 03:49:37;;;;;;;4.50;3.20;;;;;;;;;;5057335;28;20449;-71
2021/01/01 03:52:04;;;;;;;4.70;3.17;;;;;;;;;;5057513;28;20860;-71
2021/01/01 03:54:31;;;;;;;4.30;3.90;;;;;;;;;;5057760;28;20469;-71
2021/01/01 03:56:57;;;;;;;3.40;3.10;;;;;;;;;;5057504;28;20960;-71
2021/01/01 03:59:25;;;;;;;3.30;3.00;;;;;;;;;;5057472;28;20519;-70
2021/01/01 04:01:52;;;;;;;3.20;2.90;;;;;;;;;;5057808;28;20449;-70
2021/01/01 04:04:18;;;;;;;3.43;3.13;;;;;;;;;;5057718;28;20465;-70
2021/01/01 04:06:46;;;;;;;3.17;2.87;;;;;;;;;;5058839;28;20484;-71
2021/01/01 04:09:13;;;;;;;3.63;2.90;;;;;;;;;;5061618;28;20451;-72
2021/01/01 04:11:40;;;;;;;3.20;2.87;;;;;;;;;;5061463;28;20444;-71
2021/01/01 04:14:07;;;;;;;4.83;3.77;;;;;;;;;;5061504;28;20480;-71
2021/01/01 04:16:34;;;;;;;6.13;3.57;;;;;;;;;;5061475;28;20481;-71
2021/01/01 04:19:01;;;;;;;3.63;3.30;;;;;;;;;;5061131;28;20449;-72
2021/01/01 04:21:28;;;;;;;6.37;4.47;;;;;;;;;;5061569;28;20508;-73
2021/01/01 04:23:56;;;;;;;4.23;3.23;;;;;;;;;;5061120;28;20451;-71
2021/01/01 04:26:23;;;;;;;4.20;3.30;;;;;;;;;;5061299;28;20491;-71
2021/01/01 04:28:50;;;;;;;3.57;3.27;;;;;;;;;;5061032;28;20532;-71
2021/01/01 04:31:18;;;;;;;3.23;2.93;;;;;;;;;;5061288;28;20533;-71
2021/01/01 04:33:45;;;;;;;3.57;2.97;;;;;;;;;;5060979;28;20464;-71
2021/01/01 04:36:12;;;;;;;3.53;3.23;;;;;;;;;;5060877;28;20485;-69
2021/01/01 04:38:39;;;;;;;3.57;3.27;;;;;;;;;;5060790;28;20484;-70
2021/01/01 04:41:08;;;;;;;4.50;2.77;;;;;;;;;;5061202;28;20449;-69
2021/01/01 04:43:35;;;;;;;3.43;3.13;;;;;;;;;;5060902;28;20449;-70
2021/01/01 04:46:02;;;;;;;3.23;2.93;;;;;;;;;;5060854;28;20493;-70
2021/01/01 04:48:30;;;;;;;3.80;3.40;;;;;;;;;;5060795;28;20460;-67
2021/01/01 04:50:57;;;;;;;3.47;3.00;;;;;;;;;;5060848;28;20449;-68
2021/01/01 04:53:25;;;;;;;3.00;2.80;;;;;;;;;;5060387;28;20459;-69
2021/01/01 04:55:55;;;;;;;3.20;2.90;;;;;;;;;;5060293;28;20483;-69
2021/01/01 04:58:23;;;;;;;3.30;3.00;;;;;;;;;;5060114;28;20793;-70
2021/01/01 05:00:50;;;;;;;3.43;3.13;;;;;;;;;;5060307;28;20812;-69
2021/01/01 05:03:17;;;;;;;3.07;2.60;;;;;;;;;;5060265;28;20438;-68
2021/01/01 05:05:48;;;;;;;4.17;3.40;;;;;;;;;;5060699;28;20521;-71
2021/01/01 05:08:15;;;;;;;3.73;3.43;;;;;;;;;;5059983;28;20445;-70
2021/01/01 05:10:42;;;;;;;4.20;3.80;;;;;;;;;;5058560;28;20450;-70
2021/01/01 05:13:12;;;;;;;3.63;3.33;;;;;;;;;;5058598;28;20446;-70
2021/01/01 05:15:41;;;;;;;5.57;3.87;;;;;;;;;;5058669;28;20477;-70
2021/01/01 05:18:18;;;;;;;8.43;6.77;;;;;;;;;;5057406;28;20449;-70
2021/01/01 05:20:45;;;;;;;4.73;4.23;;;;;;;;;;5058685;28;21231;-70
2021/01/01 05:23:19;;;;;;;7.80;4.40;;;;;;;;;;5058462;28;20445;-70
2021/01/01 05:25:46;;;;;;;4.03;3.70;;;;;;;;;;5058149;28;20884;-70
2021/01/01 05:28:14;;;;;;;4.20;3.27;;;;;;;;;;5058246;28;20480;-70
2021/01/01 05:30:42;;;;;;;4.60;3.57;;;;;;;;;;5058196;28;20552;-70
2021/01/01 05:33:09;;;;;;;5.80;4.13;;;;;;;;;;5059594;28;20453;-70
2021/01/01 05:35:36;;;;;;;4.93;4.20;;;;;;;;;;5059627;28;20462;-70
2021/01/01 05:38:16;;;;;;;4.60;3.80;;;;;;;;;;5059834;28;20515;-70
2021/01/01 05:40:46;;;;;;;4.57;4.17;;;;;;;;;;5060138;28;20453;-70
2021/01/01 05:43:17;;;;;;;4.10;3.70;;;;;;;;;;5059901;28;20459;-70
2021/01/01 05:45:45;;;;;;;5.60;4.20;;;;;;;;;;5059873;28;20519;-70
2021/01/01 05:48:12;;;;;;;4.77;3.87;;;;;;;;;;5059773;28;20448;-69
2021/01/01 05:50:38;;;;;;;4.87;4.10;;;;;;;;;;5059825;28;20480;-70
2021/01/01 05:53:09;;;;;;;4.73;4.20;;;;;;;;;;5059957;28;20457;-69
2021/01/01 05:55:36;;;;;;;6.73;4.93;;;;;;;;;;5059874;28;20556;-70
2021/01/01 05:58:03;;;;;;;5.00;4.47;;;;;;;;;;5059679;28;20521;-69
2021/01/01 06:00:30;;;;;;;7.13;4.37;;;;;;;;;;5059758;28;20457;-70
2021/01/01 06:03:00;;;;;;;5.43;4.50;;;;;;;;;;5059457;28;20640;-69
2021/01/01 06:05:28;;;;;;;5.53;4.57;;;;;;;;;;5059378;28;20960;-70
2021/01/01 06:07:57;;;;;;;5.13;4.43;;;;;;;;;;5059411;28;20493;-69
2021/01/01 06:10:26;;;;;;;5.47;4.80;;;;;;;;;;5059627;28;20536;-70
2021/01/01 06:12:56;;;;;;;5.33;4.37;;;;;;;;;;5059392;28;20452;-69
2021/01/01 06:15:23;;;;;;;6.23;4.93;;;;;;;;;;5059548;28;20553;-69
2021/01/01 06:17:51;;;;;;;7.10;5.30;;;;;;;;;;5059155;28;20445;-70
2021/01/01 06:20:20;;;;;;;6.37;4.67;;;;;;;;;;5059211;28;20453;-69
2021/01/01 06:22:59;;;;;;;7.87;6.07;;;;;;;;;;5059014;28;20789;-70
2021/01/01 06:25:26;;;;;;;8.73;5.63;;;;;;;;;;5059019;28;20530;-70
2021/01/01 06:27:53;;;;;;;6.00;5.00;;;;;;;;;;5058958;28;21004;-70
2021/01/01 06:30:21;;;;;;;6.20;4.90;;;;;;;;;;5058677;28;20881;-70
2021/01/01 06:32:48;;;;;;;5.30;4.80;;;;;;;;;;5059075;28;20444;-70
2021/01/01 06:35:16;;;;;;;7.93;5.77;;;;;;;;;;5058651;28;20533;-69
2021/01/01 06:37:46;;;;;;;5.33;4.50;;;;;;;;;;5058897;28;20473;-70
2021/01/01 06:40:31;;;;;;;7.83;5.17;;;;;;;;;;5059061;28;20437;-70
2021/01/01 06:42:59;;;;;;;6.27;4.57;;;;;;;;;;5058900;28;20544;-70
2021/01/01 06:45:38;;;;;;;5.77;5.13;;;;;;;;;;5058795;28;20473;-69
2021/01/01 06:48:06;;;;;;;5.67;4.60;;;;;;;;;;5058538;28;20872;-70
2021/01/01 06:50:34;;;;;;;6.03;5.17;;;;;;;;;;5058828;28;20484;-70
2021/01/01 06:53:03;;;;;;;6.50;5.17;;;;;;;;;;5058481;28;20449;-69
2021/01/01 06:55:30;;;;;;;5.27;4.63;;;;;;;;;;5058502;28;20497;-70
2021/01/01 06:57:57;;;;;;;6.73;5.33;;;;;;;;;;5058546;28;20449;-70
2021/01/01 07:00:43;;;;;;;5.87;4.60;;;;;;;;;;5058546;28;20513;-69
2021/01/01 07:03:24;;;;;;;6.80;5.07;;;;;;;;;;5058291;28;20445;-69
2021/01/01 07:05:51;;;;;;;5.07;4.20;;;;;;;;;;5058073;28;20830;-69
2021/01/01 07:08:33;;;;;;;9.03;5.03;;;;;;;;;;5058463;28;20449;-69
2021/01/01 07:11:01;;;;;;;5.00;4.50;;;;;;;;;;5057826;28;20528;-69
2021/01/01 07:13:39;;;;;;;6.00;4.97;;;;;;;;;;5058453;28;20481;-69
2021/01/01 07:16:06;;;;;;;4.60;4.20;;;;;;;;;;5058153;28;20469;-69
2021/01/01 07:18:33;;;;;;;5.17;4.30;;;;;;;;;;5058481;28;20532;-70
2021/01/01 07:21:00;;;;;;;4.90;4.40;;;;;;;;;;5058025;28;20433;-70
2021/01/01 07:23:28;;;;;;;5.63;4.17;;;;;;;;;;5058322;28;20484;-69
2021/01/01 07:25:55;;;;;;;5.00;4.33;;;;;;;;;;5057675;28;20904;-69
2021/01/01 07:28:23;;;;;;;7.37;4.70;;;;;;;;;;5058270;28;20524;-69
2021/01/01 07:30:51;;;;;;;5.37;4.17;;;;;;;;;;5058116;28;21019;-69
2021/01/01 07:33:19;;;;;;;4.63;4.17;;;;;;;;;;5057701;28;20889;-70
2021/01/01 07:35:50;;;;;;;5.40;4.17;;;;;;;;;;5057693;28;20564;-69
2021/01/01 07:38:17;;;;;;;5.83;4.73;;;;;;;;;;5057778;28;20245;-70
2021/01/01 07:40:44;;;;;;;4.87;4.30;;;;;;;;;;5057767;28;20445;-69
2021/01/01 07:43:10;;;;;;;5.23;4.20;;;;;;;;;;5057484;28;20445;-70
2021/01/01 07:45:40;;;;;;;6.17;4.43;;;;;;;;;;5057460;28;20457;-70
2021/01/01 07:48:07;;;;;;;6.50;4.47;;;;;;;;;;5057341;28;20452;-69
2021/01/01 07:50:35;;;;;;;4.73;4.23;;;;;;;;;;5057759;28;20520;-70
2021/01/01 07:53:06;;;;;;;5.97;4.80;;;;;;;;;;5057758;28;20479;-70
2021/01/01 07:55:33;;;;;;;5.20;4.07;;;;;;;;;;5057864;28;20477;-69
2021/01/01 07:58:00;;;;;;;6.80;5.90;;;;;;;;;;5057620;28;20441;-69
2021/01/01 08:00:29;;;;;;;5.57;4.40;;;;;;;;;;5057444;28;20203;-70
2021/01/01 08:02:57;;;;;;;6.10;4.53;;;;;;;;;;5054279;28;20442;-69
2021/01/01 08:05:24;;;;;;;4.40;3.93;;;;;;;;;;5057207;28;20483;-69
2021/01/01 08:07:51;;;;;;;8.43;4.23;;;;;;;;;;5057223;28;20487;-69
2021/01/01 08:10:30;;;;;;;4.67;3.90;;;;;;;;;;5057426;28;20451;-70
2021/01/01 08:12:57;;;;;;;5.97;4.43;;;;;;;;;;5057393;28;20207;-70
2021/01/01 08:15:27;;;;;;;5.00;4.23;;;;;;;;;;5057205;28;20464;-70
2021/01/01 08:17:54;;;;;;;5.23;4.10;;;;;;;;;;5057207;28;20971;-69
2021/01/01 08:20:22;;;;;;;5.10;4.13;;;;;;;;;;5056983;28;20434;-70
2021/01/01 08:22:50;;;;;;;5.57;4.43;;;;;;;;;;5057347;28;20285;-69
2021/01/01 08:25:17;;;;;;;5.87;4.33;;;;;;;;;;5057390;28;20457;-70
2021/01/01 08:27:46;;;;;;;6.23;4.30;;;;;;;;;;5056880;28;20583;-69
2021/01/01 08:30:14;;;;;;;5.77;4.33;;;;;;;;;;5057220;28;20863;-69
2021/01/01 08:32:41;;;;;;;4.57;3.87;;;;;;;;;;5057211;28;20928;-69
2021/01/01 08:35:09;;;;;;;5.03;3.97;;;;;;;;;;5057047;28;20537;-69
2021/01/01 08:37:37;;;;;;;4.30;3.90;;;;;;;;;;5057185;28;20473;-69
2021/01/01 08:40:05;;;;;;;4.60;4.10;;;;;;;;;;5057224;28;20275;-69
2021/01/01 08:42:33;;;;;;;5.83;4.50;;;;;;;;;;5056971;28;20828;-69
2021/01/01 08:45:01;;;;;;;5.07;3.97;;;;;;;;;;5057245;28;20473;-69
2021/01/01 08:47:37;;;;;;;8.60;4.67;;;;;;;;;;5057123;28;20219;-69
2021/01/01 08:50:16;;;;;;;5.83;4.43;;;;;;;;;;5056808;28;20254;-69
2021/01/01 08:52:45;;;;;;;5.80;4.50;;;;;;;;;;5058124;28;20449;-70
2021/01/01 08:55:12;;;;;;;6.53;4.50;;;;;;;;;;5060665;28;20235;-69
2021/01/01 08:57:39;;;;;;;6.13;4.40;;;;;;;;;;5060884;28;20524;-70
2021/01/01 09:00:07;;;;;;;6.30;4.70;;;;;;;;;;5060537;28;20297;-70
2021/01/01 09:02:34;;;;;;;4.80;4.10;;;;;;;;;;5060933;28;20210;-70
2021/01/01 09:05:01;;;;;;;5.70;4.63;;;;;;;;;;5060177;28;20309;-69
2021/01/01 09:07:28;;;;;;;4.97;4.50;;;;;;;;;;5060760;28;20249;-69
2021/01/01 09:09:56;;;;;;;6.27;5.17;;;;;;;;;;5060797;28;20211;-69
2021/01/01 09:12:23;;;;;;;7.83;4.33;;;;;;;;;;5060312;28;20456;-70
2021/01/01 09:14:51;;;;;;;6.80;4.60;;;;;;;;;;5060512;28;20465;-69
2021/01/01 09:17:21;;;;;;;5.17;4.50;;;;;;;;;;5060399;28;20294;-69
2021/01/01 09:19:59;;;;;;;6.47;4.67;;;;;;;;;;5060094;28;20806;-69
2021/01/01 09:22:30;;;;;;;6.43;4.73;;;;;;;;;;5060423;28;20214;-69
2021/01/01 09:25:17;;;;;;;5.43;4.37;;;;;;;;;;5060213;28;20548;-69
2021/01/01 09:27:45;;;;;;;6.27;4.37;;;;;;;;;;5060214;28;20495;-70
2021/01/01 09:30:14;;;;;;;8.27;5.67;;;;;;;;;;5060406;28;20203;-70
2021/01/01 09:32:42;;;;;;;5.97;5.10;;;;;;;;;;5060331;28;20453;-69
2021/01/01 09:35:10;;;;;;;6.10;5.03;;;;;;;;;;5059806;28;20222;-69
2021/01/01 09:37:37;;;;;;;7.53;5.23;;;;;;;;;;5059891;28;21008;-69
2021/01/01 09:40:05;;;;;;;6.73;5.17;;;;;;;;;;5059904;28;20845;-69
2021/01/01 09:42:32;;;;;;;6.70;5.73;;;;;;;;;;5060052;28;20503;-70
2021/01/01 09:45:00;;;;;;;6.33;5.03;;;;;;;;;;5060022;28;20223;-70
2021/01/01 09:47:27;;;;;;;7.63;6.27;;;;;;;;;;5059605;28;20481;-69
2021/01/01 09:49:54;;;;;;;9.20;6.07;;;;;;;;;;5059715;28;20673;-70
2021/01/01 09:52:20;;;;;;;8.10;6.00;;;;;;;;;;5059717;28;20573;-70
2021/01/01 09:54:47;;;;;;;6.87;5.70;;;;;;;;;;5059832;28;20464;-69
2021/01/01 09:57:15;;;;;;;6.70;5.57;;;;;;;;;;5059693;28;20438;-70
2021/01/01 09:59:43;;;;;;;7.93;5.57;;;;;;;;;;5059538;28;20522;-69
2021/01/01 10:02:10;;;;;;;6.60;5.30;;;;;;;;;;5059649;28;20485;-70
2021/01/01 10:04:37;;;;;;;7.87;5.87;;;;;;;;;;5058620;28;20461;-69
2021/01/01 10:07:04;;;;;;;8.47;5.80;;;;;;;;;;5059640;28;20489;-69
2021/01/01 10:09:31;;;;;;;6.80;5.77;;;;;;;;;;5059367;28;20778;-69
2021/01/01 10:12:02;;;;;;;7.33;5.40;;;;;;;;;;5059218;28;20808;-70
2021/01/01 10:14:30;;;;;;;6.93;5.70;;;;;;;;;;5059207;28;20827;-69
2021/01/01 10:16:57;;;;;;;7.03;5.20;;;;;;;;;;5059558;28;20293;-69
2021/01/01 10:19:25;;;;;;;7.03;5.07;;;;;;;;;;5058987;28;20952;-69
2021/01/01 10:21:52;;;;;;;5.67;5.03;;;;;;;;;;5059226;28;20195;-69
2021/01/01 10:24:19;;;;;;;9.57;5.30;;;;;;;;;;5059019;28;20243;-70
2021/01/01 10:26:49;;;;;;;7.27;5.60;;;;;;;;;;5059248;28;20511;-69
2021/01/01 10:29:21;;;;;;;6.40;5.40;;;;;;;;;;5059290;28;20467;-69
2021/01/01 10:31:49;;;;;;;8.17;6.13;;;;;;;;;;5059273;28;20441;-69
2021/01/01 10:34:16;;;;;;;7.30;5.57;;;;;;;;;;5058412;28;20834;-69
2021/01/01 10:36:43;;;;;;;8.13;6.20;;;;;;;;;;5059032;28;20456;-69
2021/01/01 10:39:30;;;;;;;8.47;6.13;;;;;;;;;;5059030;28;20441;-69
2021/01/01 10:41:57;;;;;;;6.13;4.80;;;;;;;;;;5058877;28;20622;-70
2021/01/01 10:44:24;;;;;;;9.50;5.53;;;;;;;;;;5058714;28;20469;-69
2021/01/01 10:46:53;;;;;;;8.33;5.93;;;;;;;;;;5058708;28;20481;-69
2021/01/01 10:49:20;;;;;;;8.27;5.60;;;;;;;;;;5058639;28;20454;-69
2021/01/01 10:51:47;;;;;;;6.30;5.13;;;;;;;;;;5058812;28;20456;-69
2021/01/01 10:54:14;;;;;;;5.87;4.87;;;;;;;;;;5058751;28;20469;-69
2021/01/01 10:56:41;;;;;;;6.47;5.67;;;;;;;;;;5058661;28;20448;-69
2021/01/01 10:59:20;;;;;;;7.87;5.37;;;;;;;;;;5058477;28;20928;-69
2021/01/01 11:01:47;;;;;;;7.13;5.30;;;;;;;;;;5058673;28;20808;-69
2021/01/01 11:04:15;;;;;;;6.30;5.43;;;;;;;;;;5058257;28;20984;-70
2021/01/01 11:06:43;;;;;;;7.97;6.17;;;;;;;;;;5058274;28;20608;-70
2021/01/01 11:09:10;;;;;;;9.40;5.90;;;;;;;;;;5058578;28;20450;-70
2021/01/01 11:11:39;;;;;;;8.93;5.67;;;;;;;;;;5058452;28;20449;-69
2021/01/01 11:14:09;;;;;;;6.93;5.77;;;;;;;;;;5058162;28;20519;-70
2021/01/01 12:23:01;;;;;;;5.07;4.47;;;;;;;;;;5057636;28;20528;-70
2021/01/01 12:25:29;;;;;;;4.80;4.10;;;;;;;;;;5057262;28;20544;-70
2021/01/01 12:27:58;;;;;;;4.97;3.93;;;;;;;;;;5058404;28;20540;-69
2021/01/01 12:30:26;;;;;;;5.60;4.30;;;;;;;;;;5061472;28;20958;-70
2021/01/01 12:32:54;;;;;;;4.03;3.63;;;;;;;;;;5061134;28;20437;-70
2021/01/01 12:35:21;;;;;;;6.90;4.00;;;;;;;;;;5060989;28;20469;-70
2021/01/01 12:37:57;;;;;;;5.07;3.67;;;;;;;;;;5061141;28;20473;-69
2021/01/01 12:40:25;;;;;;;4.47;3.90;;;;;;;;;;5061188;28;20433;-69
2021/01/01 12:42:52;;;;;;;4.30;3.67;;;;;;;;;;5061216;28;20488;-70
2021/01/01 12:45:20;;;;;;;5.10;3.17;;;;;;;;;;5061118;28;21035;-70
2021/01/01 12:47:50;;;;;;;4.17;3.70;;;;;;;;;;5060837;28;20572;-70
2021/01/01 12:50:17;;;;;;;4.70;3.37;;;;;;;;;;5061069;28;20453;-70
2021/01/01 12:52:51;;;;;;;4.27;3.53;;;;;;;;;;5060926;28;20434;-69
2021/01/01 12:55:18;;;;;;;4.30;3.87;;;;;;;;;;5060992;28;20975;-70
2021/01/01 12:57:45;;;;;;;5.13;3.70;;;;;;;;;;5060721;28;20785;-69
2021/01/01 13:00:14;;;;;;;3.50;3.00;;;;;;;;;;5060544;28;20823;-70
2021/01/01 13:02:41;;;;;;;4.83;3.50;;;;;;;;;;5060704;28;20940;-69
2021/01/01 13:05:09;;;;;;;4.00;3.33;;;;;;;;;;5060571;28;20556;-69
2021/01/01 13:07:37;;;;;;;3.97;3.57;;;;;;;;;;5060432;28;20261;-70
2021/01/01 13:10:05;;;;;;;4.07;3.17;;;;;;;;;;5060652;28;20242;-69
2021/01/01 13:12:32;;;;;;;4.40;3.60;;;;;;;;;;5060261;28;20614;-70
2021/01/01 13:14:59;;;;;;;4.23;2.93;;;;;;;;;;5060579;28;20242;-70
2021/01/01 13:17:27;;;;;;;4.60;3.50;;;;;;;;;;5060409;28;20203;-69
2021/01/01 13:19:54;;;;;;;5.97;3.80;;;;;;;;;;5060370;28;20294;-70
2021/01/01 13:22:21;;;;;;;4.53;4.00;;;;;;;;;;5060178;28;20206;-69
2021/01/01 13:24:49;;;;;;;5.67;3.90;;;;;;;;;;5060348;28;20702;-69
2021/01/01 13:27:16;;;;;;;4.77;4.20;;;;;;;;;;5060134;28;20492;-70
2021/01/01 13:29:43;;;;;;;6.37;4.17;;;;;;;;;;5060209;28;20741;-70
2021/01/01 13:32:10;;;;;;;6.77;4.00;;;;;;;;;;5060304;28;20445;-70
2021/01/01 13:34:37;;;;;;;6.77;4.60;;;;;;;;;;5059835;28;20234;-70
2021/01/01 13:37:04;;;;;;;7.20;4.80;;;;;;;;;;5059881;28;20252;-69
2021/01/01 13:39:31;;;;;;;6.10;4.40;;;;;;;;;;5059278;28;20509;-69
2021/01/01 13:41:58;;;;;;;6.67;4.87;;;;;;;;;;5059856;28;20444;-69
2021/01/01 13:44:25;;;;;;;7.57;4.80;;;;;;;;;;5060145;28;20475;-69
2021/01/01 13:46:52;;;;;;;5.33;4.10;;;;;;;;;;5059483;28;20886;-69
2021/01/01 13:49:19;;;;;;;6.40;4.10;;;;;;;;;;5059782;28;20517;-70
2021/01/01 13:51:48;;;;;;;6.10;3.97;;;;;;;;;;5059890;28;20461;-69
2021/01/01 13:54:15;;;;;;;4.47;3.90;;;;;;;;;;5060081;28;20496;-69
2021/01/01 13:56:42;;;;;;;6.67;3.17;;;;;;;;;;5059783;28;20491;-69
2021/01/01 13:59:09;;;;;;;4.30;3.20;;;;;;;;;;5059857;28;20473;-69
2021/01/01 14:01:36;;;;;;;3.77;3.37;;;;;;;;;;5059615;28;20536;-69
2021/01/01 14:04:03;;;;;;;4.40;3.50;;;;;;;;;;5059224;28;20477;-69
2021/01/01 14:06:30;;;;;;;5.13;4.10;;;;;;;;;;5059782;28;20449;-69
2021/01/01 14:08:59;;;;;;;4.53;4.10;;;;;;;;;;5059639;28;20481;-69
2021/01/01 14:11:26;;;;;;;5.10;3.60;;;;;;;;;;5059284;28;20483;-69
2021/01/01 14:13:53;;;;;;;4.50;3.70;;;;;;;;;;5059289;28;20451;-69
2021/01/01 14:16:20;;;;;;;6.20;4.13;;;;;;;;;;5059387;28;20553;-69
2021/01/01 14:18:47;;;;;;;4.13;3.50;;;;;;;;;;5059037;28;20446;-69
2021/01/01 14:21:14;;;;;;;5.63;4.40;;;;;;;;;;5059463;28;20463;-69
2021/01/01 14:23:41;;;;;;;4.63;4.13;;;;;;;;;;5059223;28;20819;-69
2021/01/01 14:26:14;;;;;;;7.77;5.63;;;;;;;;;;5059529;28;20460;-69
2021/01/01 14:28:41;;;;;;;5.93;4.00;;;;;;;;;;5060198;28;20577;-70
2021/01/01 14:31:07;;;;;;;10.40;5.43;;;;;;;;;;5060219;28;20509;-69
2021/01/01 14:33:34;;;;;;;8.50;4.83;;;;;;;;;;5059619;28;20453;-69
2021/01/01 14:36:02;;;;;;;8.60;4.30;;;;;;;;;;5059424;28;21039;-70
2021/01/01 14:38:28;;;;;;;4.33;3.67;;;;;;;;;;5058919;28;20476;-70
2021/01/01 14:40:56;;;;;;;4.23;3.83;;;;;;;;;;5058829;28;20503;-69
2021/01/01 14:43:34;;;;;;;7.63;5.23;;;;;;;;;;5059057;28;20441;-70
2021/01/01 14:46:01;;;;;;;8.73;5.67;;;;;;;;;;5058959;28;20469;-70
2021/01/01 14:48:28;;;;;;;7.90;5.57;;;;;;;;;;5058525;28;20542;-70
2021/01/01 14:50:56;;;;;;;4.70;3.70;;;;;;;;;;5058566;28;20445;-70
2021/01/01 14:53:24;;;;;;;4.80;3.40;;;;;;;;;;5058548;28;20549;-70
2021/01/01 14:55:51;;;;;;;6.20;3.67;;;;;;;;;;5058769;28;20465;-70
2021/01/01 14:58:18;;;;;;;4.93;3.47;;;;;;;;;;5058584;28;20445;-70
2021/01/01 15:00:47;;;;;;;3.67;3.37;;;;;;;;;;5058528;28;20465;-70
2021/01/01 15:03:14;;;;;;;3.63;3.20;;;;;;;;;;5058343;28;20512;-70
2021/01/01 15:05:41;;;;;;;4.03;3.17;;;;;;;;;;5058636;28;20501;-70
2021/01/01 15:08:08;;;;;;;3.50;2.67;;;;;;;;;;5058169;28;20481;-70
2021/01/01 15:10:35;;;;;;;3.77;3.07;;;;;;;;;;5058663;28;20775;-70
2021/01/01 15:13:02;;;;;;;5.73;3.67;;;;;;;;;;5058303;28;20521;-70
2021/01/01 15:15:29;;;;;;;5.20;4.30;;;;;;;;;;5058273;28;20493;-69
2021/01/01 15:17:56;;;;;;;7.17;4.70;;;;;;;;;;5057821;28;20909;-70
2021/01/01 15:20:24;;;;;;;5.43;4.07;;;;;;;;;;5058156;28;20507;-69
2021/01/01 15:22:51;;;;;;;4.50;3.70;;;;;;;;;;5058007;28;20453;-70
2021/01/01 15:25:18;;;;;;;4.40;4.00;;;;;;;;;;5057894;28;20976;-69
2021/01/01 15:27:45;;;;;;;6.23;4.47;;;;;;;;;;5058010;28;20487;-70
2021/01/01 15:30:12;;;;;;;5.70;4.37;;;;;;;;;;5057839;28;20817;-69
2021/01/01 15:32:39;;;;;;;5.20;3.47;;;;;;;;;;5058173;28;20521;-68
2021/01/01 15:35:07;;;;;;;7.50;4.93;;;;;;;;;;5057632;28;20556;-69
2021/01/01 15:37:35;;;;;;;5.07;4.13;;;;;;;;;;5057768;28;20777;-70
2021/01/01 15:40:02;;;;;;;5.27;3.50;;;;;;;;;;5058022;28;20456;-70
2021/01/01 15:42:29;;;;;;;4.27;3.87;;;;;;;;;;5057681;28;20735;-69
2021/01/01 15:44:56;;;;;;;5.83;3.50;;;;;;;;;;5057825;28;20250;-69
2021/01/01 15:47:23;;;;;;;6.57;3.90;;;;;;;;;;5057468;28;20244;-69
2021/01/01 15:49:50;;;;;;;4.13;3.60;;;;;;;;;;5057610;28;20516;-69
2021/01/01 15:52:18;;;;;;;6.07;3.63;;;;;;;;;;5057763;28;20677;-70
2021/01/01 15:54:45;;;;;;;9.77;4.20;;;;;;;;;;5057673;28;20470;-69